createdAt,value
2017-07-08T00:00:50.924Z,93.60
2017-07-08T00:03:19.463Z,93.40
2017-07-08T00:05:46.952Z,93.40
2017-07-08T00:08:14.550Z,93.50
2017-07-08T00:10:42.026Z,93.20
2017-07-08T00:13:09.510Z,93.40
2017-07-08T00:15:37.223Z,93.30
2017-07-08T00:18:04.779Z,93.30
2017-07-08T00:20:33.032Z,93.10
2017-07-08T00:23:00.571Z,93.10
2017-07-08T00:25:28.089Z,93.20
2017-07-08T00:27:55.579Z,93.20
2017-07-08T00:30:23.072Z,93.20
2017-07-08T00:32:50.563Z,93.00
2017-07-08T00:35:18.060Z,92.90
2017-07-08T00:37:45.577Z,92.80
2017-07-08T00:40:13.078Z,92.60
2017-07-08T00:42:40.589Z,92.70
2017-07-08T00:45:08.882Z,92.70
2017-07-08T00:47:36.418Z,92.70
2017-07-08T00:50:04.686Z,93.40
2017-07-08T00:52:33.095Z,93.00
2017-07-08T00:55:00.598Z,93.00
2017-07-08T00:57:28.082Z,93.30
2017-07-08T00:59:56.371Z,93.20
2017-07-08T01:02:24.637Z,93.10
2017-07-08T01:04:52.905Z,93.00
2017-07-08T01:07:21.438Z,93.00
2017-07-08T01:09:49.005Z,92.80
2017-07-08T01:12:16.485Z,92.70
2017-07-08T01:14:44.010Z,92.70
2017-07-08T01:17:12.353Z,92.60
2017-07-08T01:19:40.657Z,92.80
2017-07-08T01:22:08.189Z,92.40
2017-07-08T01:24:36.453Z,92.40
2017-07-08T01:27:03.955Z,92.30
2017-07-08T01:29:31.487Z,92.20
2017-07-08T01:31:59.754Z,92.40
2017-07-08T01:34:27.225Z,92.40
2017-07-08T01:36:55.503Z,92.80
2017-07-08T01:39:23.757Z,93.00
2017-07-08T01:41:51.253Z,93.00
2017-07-08T01:44:18.777Z,93.00
2017-07-08T01:46:46.286Z,92.90
2017-07-08T01:49:13.774Z,92.90
2017-07-08T01:51:41.491Z,92.80
2017-07-08T01:54:08.973Z,92.90
2017-07-08T01:56:36.455Z,92.80
2017-07-08T01:59:03.982Z,92.90
2017-07-08T02:01:31.547Z,92.80
2017-07-08T02:03:59.070Z,92.90
2017-07-08T02:06:27.340Z,92.80
2017-07-08T02:08:56.376Z,92.80
2017-07-08T02:11:23.885Z,92.80
2017-07-08T02:13:51.401Z,92.70
2017-07-08T02:16:18.885Z,92.60
2017-07-08T02:18:46.376Z,92.60
2017-07-08T02:21:14.656Z,92.80
2017-07-08T02:23:42.938Z,92.90
2017-07-08T02:26:11.316Z,92.60
2017-07-08T02:28:39.575Z,92.60
2017-07-08T02:31:07.877Z,92.10
2017-07-08T02:33:35.362Z,92.10
2017-07-08T02:36:02.896Z,91.90
2017-07-08T02:38:30.411Z,91.70
2017-07-08T02:40:57.904Z,91.60
2017-07-08T02:43:26.215Z,91.70
2017-07-08T02:45:53.748Z,91.70
2017-07-08T02:48:21.263Z,91.80
2017-07-08T02:50:48.752Z,91.70
2017-07-08T02:53:17.241Z,91.70
2017-07-08T02:55:45.500Z,91.60
2017-07-08T02:58:13.014Z,91.60
2017-07-08T03:00:40.751Z,91.70
2017-07-08T03:03:08.266Z,91.50
2017-07-08T03:05:35.858Z,91.60
2017-07-08T03:08:04.141Z,91.50
2017-07-08T03:10:31.634Z,91.50
2017-07-08T03:12:59.132Z,91.30
2017-07-08T03:15:26.669Z,91.40
2017-07-08T03:17:54.200Z,91.50
2017-07-08T03:20:21.709Z,91.60
2017-07-08T03:22:49.295Z,91.50
2017-07-08T03:25:17.566Z,91.40
2017-07-08T03:27:45.829Z,91.50
2017-07-08T03:30:13.337Z,91.40
2017-07-08T03:32:40.833Z,91.40
2017-07-08T03:35:08.323Z,91.20
2017-07-08T03:37:35.837Z,91.30
2017-07-08T03:40:03.345Z,91.20
2017-07-08T03:42:30.832Z,91.10
2017-07-08T03:44:58.339Z,91.10
2017-07-08T03:47:25.837Z,91.20
2017-07-08T03:49:53.964Z,91.10
2017-07-08T03:52:21.505Z,91.00
2017-07-08T03:54:49.014Z,90.90
2017-07-08T03:57:16.587Z,90.90
2017-07-08T03:59:44.138Z,90.90
2017-07-08T04:02:11.709Z,90.80
2017-07-08T04:04:39.206Z,90.90
2017-07-08T04:07:06.870Z,90.80
2017-07-08T04:09:34.361Z,90.80
2017-07-08T04:12:02.623Z,91.00
2017-07-08T04:14:30.163Z,91.00
2017-07-08T04:16:57.692Z,90.90
2017-07-08T04:19:25.182Z,91.00
2017-07-08T04:21:52.682Z,90.80
2017-07-08T04:24:20.955Z,90.70
2017-07-08T04:26:49.244Z,90.70
2017-07-08T04:29:16.767Z,90.70
2017-07-08T04:31:44.300Z,90.60
2017-07-08T04:34:11.804Z,90.60
2017-07-08T04:36:40.296Z,91.00
2017-07-08T04:39:07.823Z,90.90
2017-07-08T04:41:35.348Z,91.00
2017-07-08T04:44:02.879Z,90.90
2017-07-08T04:46:31.277Z,90.70
2017-07-08T04:48:58.851Z,90.60
2017-07-08T04:51:26.383Z,90.70
2017-07-08T04:53:53.934Z,90.50
2017-07-08T04:56:21.420Z,90.70
2017-07-08T04:58:48.958Z,90.30
2017-07-08T05:01:16.510Z,90.50
2017-07-08T05:03:44.069Z,90.30
2017-07-08T05:06:12.352Z,90.50
2017-07-08T05:08:39.842Z,90.50
2017-07-08T05:11:07.350Z,90.40
2017-07-08T05:13:35.801Z,90.30
2017-07-08T05:16:03.307Z,90.20
2017-07-08T05:18:30.815Z,90.30
2017-07-08T05:20:58.437Z,90.10
2017-07-08T05:23:25.933Z,90.00
2017-07-08T05:25:53.440Z,90.10
2017-07-08T05:28:21.745Z,90.20
2017-07-08T05:30:49.218Z,90.20
2017-07-08T05:33:16.712Z,90.00
2017-07-08T05:35:44.229Z,89.90
2017-07-08T05:38:11.719Z,89.10
2017-07-08T05:40:39.319Z,88.90
2017-07-08T05:43:06.832Z,89.00
2017-07-08T05:45:34.330Z,88.30
2017-07-08T05:48:02.617Z,88.60
2017-07-08T05:50:30.131Z,88.60
2017-07-08T05:52:57.648Z,87.90
2017-07-08T05:55:25.157Z,88.40
2017-07-08T05:57:52.843Z,88.10
2017-07-08T06:00:21.104Z,88.30
2017-07-08T06:02:48.602Z,88.30
2017-07-08T06:05:16.106Z,88.50
2017-07-08T06:07:43.610Z,87.70
2017-07-08T06:10:11.292Z,87.40
2017-07-08T06:12:38.832Z,87.20
2017-07-08T06:15:06.317Z,86.20
2017-07-08T06:17:33.971Z,84.30
2017-07-08T06:20:01.490Z,84.30
2017-07-08T06:22:29.793Z,84.40
2017-07-08T06:24:57.286Z,84.40
2017-07-08T06:27:24.889Z,84.40
2017-07-08T06:29:53.659Z,85.40
2017-07-08T06:32:21.193Z,85.40
2017-07-08T06:34:48.695Z,85.10
2017-07-08T06:37:16.953Z,83.00
2017-07-08T06:39:44.827Z,82.90
2017-07-08T06:42:12.337Z,83.10
2017-07-08T06:44:39.856Z,83.20
2017-07-08T06:47:08.111Z,83.80
2017-07-08T06:49:35.627Z,83.80
2017-07-08T06:52:03.165Z,83.10
2017-07-08T06:54:30.723Z,81.40
2017-07-08T06:56:58.242Z,80.60
2017-07-08T06:59:25.757Z,79.30
2017-07-08T07:01:53.239Z,79.50
2017-07-08T07:04:20.751Z,79.30
2017-07-08T07:06:49.152Z,78.10
2017-07-08T07:09:16.629Z,78.10
2017-07-08T07:11:45.766Z,78.20
2017-07-08T07:14:13.310Z,77.00
2017-07-08T07:16:41.077Z,76.80
2017-07-08T07:19:08.703Z,76.70
2017-07-08T07:21:36.198Z,77.20
2017-07-08T07:24:03.692Z,79.10
2017-07-08T07:26:32.200Z,79.40
2017-07-08T07:28:59.722Z,79.40
2017-07-08T07:31:27.981Z,77.40
2017-07-08T07:33:55.506Z,77.30
2017-07-08T07:36:22.987Z,74.40
2017-07-08T07:38:50.928Z,75.30
2017-07-08T07:41:18.734Z,74.40
2017-07-08T07:43:46.166Z,75.70
2017-07-08T07:46:13.973Z,75.00
2017-07-08T07:48:42.263Z,76.00
2017-07-08T07:51:09.787Z,75.90
2017-07-08T07:53:37.306Z,76.50
2017-07-08T07:56:04.818Z,78.10
2017-07-08T07:58:32.408Z,79.30
2017-07-08T08:00:59.915Z,79.40
2017-07-08T08:03:27.413Z,80.00
2017-07-08T08:05:55.717Z,79.20
2017-07-08T08:08:23.260Z,79.10
2017-07-08T08:10:50.744Z,78.40
2017-07-08T08:13:18.298Z,76.30
2017-07-08T08:15:45.789Z,75.10
2017-07-08T08:18:13.400Z,74.90
2017-07-08T08:20:40.905Z,73.30
2017-07-08T08:23:08.390Z,74.00
2017-07-08T08:25:35.932Z,71.70
2017-07-08T08:28:03.664Z,70.00
2017-07-08T08:30:31.186Z,69.40
2017-07-08T08:32:59.460Z,69.40
2017-07-08T08:35:27.755Z,67.30
2017-07-08T08:37:55.266Z,67.20
2017-07-08T08:40:23.583Z,67.80
2017-07-08T08:42:51.871Z,68.30
2017-07-08T08:45:19.448Z,68.30
2017-07-08T08:47:46.940Z,66.00
2017-07-08T08:50:14.465Z,64.10
2017-07-08T08:52:41.982Z,65.40
2017-07-08T08:55:10.257Z,66.40
2017-07-08T08:57:37.842Z,66.40
2017-07-08T09:00:05.336Z,67.70
2017-07-08T09:02:33.219Z,64.80
2017-07-08T09:05:00.743Z,65.30
2017-07-08T09:07:28.448Z,63.90
2017-07-08T09:09:55.936Z,64.40
2017-07-08T09:12:24.221Z,62.90
2017-07-08T09:14:51.727Z,62.90
2017-07-08T09:17:19.230Z,62.20
2017-07-08T09:19:47.502Z,61.60
2017-07-08T09:22:15.793Z,61.30
2017-07-08T09:24:43.361Z,61.20
2017-07-08T09:27:10.979Z,62.00
2017-07-08T09:29:38.594Z,64.00
2017-07-08T09:32:07.739Z,63.20
2017-07-08T09:34:36.767Z,63.40
2017-07-08T09:37:05.450Z,61.40
2017-07-08T09:39:32.944Z,61.40
2017-07-08T09:42:00.477Z,61.60
2017-07-08T09:44:27.971Z,59.10
2017-07-08T09:46:55.468Z,58.60
2017-07-08T09:49:23.761Z,60.70
2017-07-08T09:51:52.021Z,59.90
2017-07-08T09:54:20.295Z,57.60
2017-07-08T09:56:48.672Z,57.60
2017-07-08T09:59:16.175Z,57.40
2017-07-08T10:01:43.682Z,56.40
2017-07-08T10:04:11.304Z,55.90
2017-07-08T10:06:38.843Z,54.80
2017-07-08T10:09:06.348Z,55.80
2017-07-08T10:14:07.840Z,55.00
2017-07-08T10:16:35.363Z,56.80
2017-07-08T10:19:02.865Z,57.80
2017-07-08T10:21:31.145Z,60.10
2017-07-08T10:23:58.653Z,60.10
2017-07-08T10:26:26.162Z,59.80
2017-07-08T10:28:54.420Z,59.90
2017-07-08T10:31:21.948Z,59.80
2017-07-08T10:33:49.462Z,59.00
2017-07-08T10:36:17.714Z,58.90
2017-07-08T10:38:45.249Z,58.90
2017-07-08T10:41:12.771Z,56.80
2017-07-08T10:43:40.302Z,57.10
2017-07-08T10:46:07.812Z,56.70
2017-07-08T10:48:35.323Z,57.20
2017-07-08T10:51:03.595Z,59.10
2017-07-08T10:53:31.907Z,59.10
2017-07-08T10:55:59.497Z,59.70
2017-07-08T10:58:27.009Z,57.40
2017-07-08T11:00:55.306Z,58.60
2017-07-08T11:03:22.786Z,59.20
2017-07-08T11:05:50.279Z,58.90
2017-07-08T11:08:17.821Z,59.70
2017-07-08T11:10:45.323Z,61.80
2017-07-08T11:13:13.623Z,58.10
2017-07-08T11:15:41.145Z,58.00
2017-07-08T11:18:08.644Z,56.40
2017-07-08T11:20:36.355Z,55.40
2017-07-08T11:23:03.876Z,55.20
2017-07-08T11:25:31.373Z,56.20
2017-07-08T11:27:58.972Z,54.60
2017-07-08T11:30:26.465Z,54.70
2017-07-08T11:32:54.834Z,53.60
2017-07-08T11:35:22.368Z,54.50
2017-07-08T11:37:50.616Z,55.90
2017-07-08T11:40:18.115Z,55.90
2017-07-08T11:42:45.621Z,56.10
2017-07-08T11:45:13.115Z,54.10
2017-07-08T11:47:41.360Z,49.90
2017-07-08T11:50:08.967Z,49.80
2017-07-08T11:52:36.469Z,49.60
2017-07-08T11:55:03.965Z,49.80
2017-07-08T11:57:32.248Z,50.20
2017-07-08T12:00:00.499Z,48.30
2017-07-08T12:02:27.988Z,48.30
2017-07-08T12:04:55.495Z,47.90
2017-07-08T12:07:22.985Z,48.60
2017-07-08T12:09:51.945Z,47.90
2017-07-08T12:12:19.464Z,47.60
2017-07-08T12:14:46.975Z,47.30
2017-07-08T12:17:14.478Z,46.50
2017-07-08T12:19:42.071Z,44.10
2017-07-08T12:22:09.617Z,45.90
2017-07-08T12:24:37.125Z,47.90
2017-07-08T12:27:04.621Z,47.00
2017-07-08T12:29:32.107Z,45.60
2017-07-08T12:31:59.613Z,45.90
2017-07-08T12:34:27.905Z,41.50
2017-07-08T12:36:55.420Z,41.50
2017-07-08T12:39:22.900Z,40.00
2017-07-08T12:41:50.403Z,39.90
2017-07-08T12:44:17.896Z,40.20
2017-07-08T12:46:45.408Z,41.80
2017-07-08T12:49:12.933Z,42.90
2017-07-08T12:51:40.416Z,43.70
2017-07-08T12:54:07.935Z,43.40
2017-07-08T12:56:35.658Z,41.00
2017-07-08T12:59:03.147Z,37.50
2017-07-08T13:01:30.654Z,35.40
2017-07-08T13:03:58.234Z,35.50
2017-07-08T13:06:25.907Z,35.90
2017-07-08T13:08:53.388Z,37.50
2017-07-08T13:11:21.118Z,39.30
2017-07-08T13:13:48.620Z,42.90
2017-07-08T13:16:16.110Z,42.40
2017-07-08T13:18:44.393Z,41.40
2017-07-08T13:21:12.650Z,43.10
2017-07-08T13:23:40.234Z,43.00
2017-07-08T13:26:08.603Z,42.70
2017-07-08T13:28:36.854Z,42.30
2017-07-08T13:31:04.339Z,42.30
2017-07-08T13:33:32.602Z,40.60
2017-07-08T13:36:00.130Z,40.60
2017-07-08T13:38:27.631Z,39.30
2017-07-08T13:40:56.749Z,38.60
2017-07-08T13:43:24.264Z,38.60
2017-07-08T13:45:52.090Z,38.40
2017-07-08T13:48:19.607Z,39.40
2017-07-08T13:50:47.890Z,38.20
2017-07-08T13:53:16.141Z,37.80
2017-07-08T13:55:43.646Z,37.70
2017-07-08T13:58:11.230Z,38.40
2017-07-08T14:00:38.713Z,34.10
2017-07-08T14:03:07.121Z,31.10
2017-07-08T14:05:35.437Z,33.50
2017-07-08T14:08:20.730Z,33.50
2017-07-08T14:10:48.259Z,32.20
2017-07-08T14:13:15.738Z,30.80
2017-07-08T14:15:43.294Z,32.30
2017-07-08T14:18:10.786Z,33.10
2017-07-08T14:20:38.261Z,33.20
2017-07-08T14:23:05.817Z,32.90
2017-07-08T14:25:33.324Z,33.20
2017-07-08T14:28:00.819Z,33.80
2017-07-08T14:30:29.125Z,31.90
2017-07-08T14:32:57.378Z,29.20
2017-07-08T14:35:24.993Z,29.10
2017-07-08T14:37:52.532Z,27.10
2017-07-08T14:40:20.788Z,26.40
2017-07-08T14:42:48.273Z,26.40
2017-07-08T14:45:15.797Z,26.30
2017-07-08T14:47:43.284Z,26.40
2017-07-08T14:50:10.772Z,27.00
2017-07-08T14:52:38.511Z,27.40
2017-07-08T14:55:06.083Z,27.50
2017-07-08T14:57:33.637Z,26.90
2017-07-08T15:00:01.143Z,26.00
2017-07-08T15:02:28.636Z,25.10
2017-07-08T15:04:56.130Z,26.90
2017-07-08T15:07:23.666Z,30.30
2017-07-08T15:09:51.171Z,32.70
2017-07-08T15:12:18.683Z,33.70
2017-07-08T15:14:46.203Z,34.60
2017-07-08T15:17:13.721Z,36.10
2017-07-08T15:19:41.221Z,36.70
2017-07-08T15:22:08.759Z,37.20
2017-07-08T15:24:36.275Z,39.20
2017-07-08T15:27:03.782Z,39.90
2017-07-08T15:29:31.304Z,40.60
2017-07-08T15:31:58.827Z,39.30
2017-07-08T15:34:26.309Z,41.30
2017-07-08T15:36:54.599Z,40.20
2017-07-08T15:39:22.106Z,40.10
2017-07-08T15:41:49.593Z,38.90
2017-07-08T15:44:17.896Z,39.60
2017-07-08T15:46:45.379Z,39.60
2017-07-08T15:49:12.862Z,39.10
2017-07-08T15:51:40.380Z,38.60
2017-07-08T15:54:07.917Z,37.70
2017-07-08T15:56:36.203Z,39.00
2017-07-08T15:59:03.727Z,39.00
2017-07-08T16:01:31.230Z,37.70
2017-07-08T16:03:58.740Z,37.10
2017-07-08T16:06:26.331Z,36.60
2017-07-08T16:08:53.820Z,36.90
2017-07-08T16:11:21.349Z,38.40
2017-07-08T16:13:48.864Z,37.40
2017-07-08T16:16:16.388Z,37.70
2017-07-08T16:18:43.916Z,36.70
2017-07-08T16:21:12.171Z,35.80
2017-07-08T16:23:39.662Z,35.80
2017-07-08T16:26:07.179Z,36.50
2017-07-08T16:28:34.663Z,36.70
2017-07-08T16:31:02.934Z,37.50
2017-07-08T16:33:30.447Z,37.00
2017-07-08T16:35:57.942Z,36.60
2017-07-08T16:38:25.432Z,36.40
2017-07-08T16:40:53.100Z,36.90
2017-07-08T16:43:20.680Z,36.30
2017-07-08T16:45:48.244Z,37.80
2017-07-08T16:48:15.754Z,37.90
2017-07-08T16:50:44.051Z,38.70
2017-07-08T16:53:11.650Z,38.20
2017-07-08T16:55:39.189Z,37.70
2017-07-08T16:58:06.665Z,37.30
2017-07-08T17:00:34.335Z,36.70
2017-07-08T17:03:02.690Z,38.00
2017-07-08T17:05:30.178Z,37.40
2017-07-08T17:07:57.700Z,38.00
2017-07-08T17:10:25.222Z,37.10
2017-07-08T17:12:52.799Z,36.70
2017-07-08T17:15:21.069Z,36.50
2017-07-08T17:17:49.374Z,35.70
2017-07-08T17:20:16.914Z,35.80
2017-07-08T17:22:45.181Z,35.50
2017-07-08T17:25:12.675Z,35.40
2017-07-08T17:27:40.555Z,35.00
2017-07-08T17:30:08.048Z,34.50
2017-07-08T17:32:35.569Z,33.90
2017-07-08T17:35:03.086Z,34.00
2017-07-08T17:37:30.590Z,34.90
2017-07-08T17:39:58.393Z,35.60
2017-07-08T17:42:26.044Z,35.20
2017-07-08T17:44:53.523Z,36.40
2017-07-08T17:47:21.012Z,36.40
2017-07-08T17:49:48.576Z,36.50
2017-07-08T17:52:16.048Z,35.90
2017-07-08T17:54:43.530Z,35.70
2017-07-08T17:57:11.057Z,36.40
2017-07-08T17:59:38.550Z,36.50
2017-07-08T18:02:06.038Z,36.40
2017-07-08T18:04:33.543Z,36.70
2017-07-08T18:07:01.042Z,37.00
2017-07-08T18:09:28.521Z,37.40
2017-07-08T18:11:57.561Z,38.50
2017-07-08T18:14:25.096Z,38.50
2017-07-08T18:16:52.577Z,39.80
2017-07-08T18:19:20.094Z,40.20
2017-07-08T18:21:48.346Z,39.80
2017-07-08T18:24:15.844Z,39.40
2017-07-08T18:26:43.364Z,40.20
2017-07-08T18:29:10.858Z,42.00
2017-07-08T18:31:39.097Z,43.40
2017-07-08T18:34:06.683Z,43.30
2017-07-08T18:36:34.959Z,43.90
2017-07-08T18:39:03.215Z,44.10
2017-07-08T18:41:30.721Z,44.00
2017-07-08T18:43:58.229Z,44.20
2017-07-08T18:46:25.704Z,44.90
2017-07-08T18:48:53.393Z,45.60
2017-07-08T18:51:21.097Z,46.50
2017-07-08T18:53:48.627Z,47.10
2017-07-08T18:56:16.157Z,47.60
2017-07-08T18:58:44.433Z,48.30
2017-07-08T19:01:12.687Z,48.60
2017-07-08T19:03:40.284Z,48.20
2017-07-08T19:06:09.478Z,49.10
2017-07-08T19:08:37.785Z,49.40
2017-07-08T19:11:05.286Z,49.40
2017-07-08T19:13:32.808Z,49.40
2017-07-08T19:16:00.300Z,50.00
2017-07-08T19:18:27.831Z,50.10
2017-07-08T19:20:55.340Z,51.30
2017-07-08T19:23:23.627Z,51.00
2017-07-08T19:25:51.945Z,52.00
2017-07-08T19:28:19.484Z,52.00
2017-07-08T19:30:46.978Z,52.70
2017-07-08T19:33:14.494Z,53.70
2017-07-08T19:35:42.026Z,54.30
2017-07-08T19:38:10.224Z,54.60
2017-07-08T19:40:37.759Z,55.00
2017-07-08T19:43:06.031Z,55.70
2017-07-08T19:45:33.527Z,55.70
2017-07-08T19:48:01.053Z,56.60
2017-07-08T19:50:28.680Z,57.20
2017-07-08T19:52:56.178Z,57.70
2017-07-08T19:55:24.456Z,59.30
2017-07-08T19:57:52.721Z,61.80
2017-07-08T20:00:20.218Z,61.80
2017-07-08T20:02:47.742Z,61.60
2017-07-08T20:05:15.271Z,62.60
2017-07-08T20:07:42.803Z,62.60
2017-07-08T20:10:10.660Z,63.30
2017-07-08T20:12:38.236Z,65.20
2017-07-08T20:15:06.498Z,65.80
2017-07-08T20:17:34.076Z,65.70
2017-07-08T20:20:01.633Z,66.90
2017-07-08T20:22:29.443Z,66.70
2017-07-08T20:24:56.985Z,67.40
2017-07-08T20:27:24.469Z,68.60
2017-07-08T20:29:52.040Z,69.30
2017-07-08T20:32:20.331Z,68.90
2017-07-08T20:34:47.822Z,69.10
2017-07-08T20:37:16.235Z,68.90
2017-07-08T20:39:43.763Z,68.90
2017-07-08T20:42:11.268Z,69.20
2017-07-08T20:44:38.785Z,69.50
2017-07-08T20:47:06.311Z,69.60
2017-07-08T20:49:33.832Z,70.10
2017-07-08T20:52:01.334Z,70.40
2017-07-08T20:54:29.003Z,71.10
2017-07-08T20:56:56.499Z,72.30
2017-07-08T20:59:23.990Z,73.00
2017-07-08T21:01:52.284Z,73.50
2017-07-08T21:04:19.829Z,73.50
2017-07-08T21:06:48.110Z,75.70
2017-07-08T21:09:16.382Z,76.70
2017-07-08T21:11:44.697Z,77.20
2017-07-08T21:14:12.215Z,77.00
2017-07-08T21:16:40.488Z,77.00
2017-07-08T21:19:08.171Z,76.80
2017-07-08T21:21:36.446Z,75.50
2017-07-08T21:24:04.725Z,75.90
2017-07-08T21:26:32.251Z,75.80
2017-07-08T21:28:59.744Z,77.40
2017-07-08T21:31:27.251Z,77.30
2017-07-08T21:33:54.784Z,77.20
2017-07-08T21:36:23.318Z,77.20
2017-07-08T21:38:50.929Z,77.50
2017-07-08T21:41:18.473Z,78.30
2017-07-08T21:43:45.973Z,79.70
2017-07-08T21:46:13.507Z,78.90
2017-07-08T21:48:41.020Z,78.80
2017-07-08T21:51:08.510Z,78.60
2017-07-08T21:53:36.029Z,77.60
2017-07-08T21:56:03.575Z,76.90
2017-07-08T21:58:31.119Z,77.10
2017-07-08T22:00:58.614Z,76.30
2017-07-08T22:03:26.133Z,76.90
2017-07-08T22:05:53.634Z,77.60
2017-07-08T22:08:21.906Z,80.70
2017-07-08T22:10:49.459Z,80.00
2017-07-08T22:13:16.994Z,80.80
2017-07-08T22:15:44.488Z,81.30
2017-07-08T22:18:12.008Z,81.00
2017-07-08T22:20:39.529Z,81.00
2017-07-08T22:23:07.266Z,81.70
2017-07-08T22:25:34.788Z,82.70
2017-07-08T22:28:02.296Z,83.30
2017-07-08T22:30:30.554Z,83.70
2017-07-08T22:32:58.068Z,83.60
2017-07-08T22:35:25.603Z,83.00
2017-07-08T22:37:53.104Z,82.90
2017-07-08T22:40:20.670Z,82.80
2017-07-08T22:42:48.186Z,82.90
2017-07-08T22:45:15.700Z,83.00
2017-07-08T22:47:43.230Z,83.40
2017-07-08T22:50:10.746Z,83.30
2017-07-08T22:52:39.025Z,83.70
2017-07-08T22:55:07.324Z,84.60
2017-07-08T22:57:34.812Z,84.60
2017-07-08T23:00:02.310Z,85.60
2017-07-08T23:02:30.615Z,85.90
2017-07-08T23:04:58.136Z,85.90
2017-07-08T23:07:26.455Z,85.80
2017-07-08T23:09:53.993Z,85.10
2017-07-08T23:12:22.254Z,84.30
2017-07-08T23:14:49.736Z,84.20
2017-07-08T23:17:18.054Z,85.20
2017-07-08T23:19:45.560Z,85.10
2017-07-08T23:22:13.852Z,85.80
2017-07-08T23:24:42.181Z,86.10
2017-07-08T23:27:09.702Z,86.10
2017-07-08T23:29:37.192Z,86.30
2017-07-08T23:32:04.706Z,86.60
2017-07-08T23:34:32.212Z,87.20
2017-07-08T23:36:59.710Z,87.00
2017-07-08T23:39:27.271Z,86.80
2017-07-08T23:41:54.784Z,86.70
2017-07-08T23:44:22.299Z,86.60
2017-07-08T23:46:50.701Z,86.90
2017-07-08T23:49:18.236Z,86.80
2017-07-08T23:51:45.731Z,86.90
2017-07-08T23:54:13.357Z,86.80
2017-07-08T23:56:41.616Z,85.60
2017-07-08T23:59:09.341Z,85.50
